WIDD/BTH METAR and TAF weather

Enter ICAO airport designator
Station Type Date Time Source
WIDD METAR 2019/05/25 16:00 UTC NOAA

WIDD 251600Z 00000KT 9999 FEW014 27/25 Q1011 NOSIG


Station Type Date Time Source
WIDD Decoded METAR 2019/05/25 16:00 UTC NOAA

Station name not available
May 25, 2019 - 12:00 PM EDT / 2019.05.25 1600 UTC
Wind: Calm:0
Visibility: greater than 7 mile(s):0
Sky conditions: mostly clear
Temperature: 80 F (27 C)
Dew Point: 77 F (25 C)
Relative Humidity: 88%
Pressure (altimeter): 29.85 in. Hg (1011 hPa)
ob: WIDD 251600Z 00000KT 9999 FEW014 27/25 Q1011 NOSIG
cycle: 16

Station Type Date Time Source
WIDD TAF 2019/05/25 12:00 UTC NOAA

TAF WIDD 251100Z 2512/2612 18004KT 9999 SCT14
BECMG 2513/2514 00000KT

Example: see airport list